Time;durP1;ratioP1;P1;durP2;ratioP2;P2;SDS_P1;SDS_P2;PMS_P1;PMS_P2;Temp;Humidity;BMP_temperature;BMP_pressure;BME280_temperature;BME280_humidity;BME280_pressure;Samples;Min_cycle;Max_cycle;Signal;HPM_P1;HPM_P2
2021/06/25 06:44:22;;;;;;;12.40;8.20;;;25.30;66.30;;;;;;5036183;28;20471;-96
2021/06/25 06:49:27;;;;;;;8.13;6.93;;;25.40;64.50;;;;;;5014390;28;20542;-96
2021/06/25 06:51:54;;;;;;;7.50;6.77;;;25.40;63.50;;;;;;5013970;28;20507;-96
2021/06/25 06:54:23;;;;;;;7.63;6.43;;;25.40;62.80;;;;;;5016704;28;20451;-96
2021/06/25 06:56:52;;;;;;;6.50;5.47;;;25.40;63.30;;;;;;5015347;28;20440;-96
2021/06/25 06:59:21;;;;;;;6.53;5.93;;;25.40;62.90;;;;;;5016336;28;20446;-96
2021/06/25 07:01:56;;;;;;;6.03;4.73;;;25.40;62.40;;;;;;5014836;28;20434;-96
2021/06/25 07:04:23;;;;;;;5.30;4.80;;;25.40;62.30;;;;;;5014438;28;20434;-96
2021/06/25 07:09:57;;;;;;;4.87;4.47;;;25.50;63.10;;;;;;5013239;28;20462;-96
2021/06/25 07:12:31;;;;;;;5.83;4.30;;;25.50;64.10;;;;;;5013591;28;20431;-96
2021/06/25 07:15:14;;;;;;;5.30;4.27;;;25.50;63.90;;;;;;5009310;28;20521;-95
2021/06/25 07:17:41;;;;;;;5.70;5.10;;;25.50;64.70;;;;;;5007123;28;20515;-93
2021/06/25 07:20:12;;;;;;;6.20;4.93;;;25.50;63.40;;;;;;5002584;28;20534;-95
2021/06/25 07:25:28;;;;;;;5.80;5.30;;;25.60;64.40;;;;;;5013129;28;20441;-96
2021/06/25 07:30:26;;;;;;;5.70;5.10;;;25.50;61.60;;;;;;4971836;28;20481;-92
2021/06/25 07:35:34;;;;;;;7.00;4.70;;;25.50;60.70;;;;;;4929675;29;20459;-92
2021/06/25 08:03:06;;;;;;;4.40;3.83;;;25.50;60.90;;;;;;5099713;23;21010;-92
2021/06/25 08:05:48;;;;;;;8.77;3.63;;;25.50;60.90;;;;;;5455082;23;20593;-95
2021/06/25 08:08:15;;;;;;;4.40;3.57;;;25.50;61.20;;;;;;5000600;28;20446;-95
2021/06/25 08:20:15;;;;;;;5.53;2.90;;;25.50;65.10;;;;;;5729743;23;20501;-96
2021/06/25 08:22:42;;;;;;;5.00;3.50;;;25.50;65.80;;;;;;5116972;23;20477;-96
2021/06/25 08:30:52;;;;;;;3.77;3.47;;;25.60;66.80;;;;;;5917817;23;20477;-93
2021/06/25 08:33:18;;;;;;;3.00;2.60;;;25.60;67.10;;;;;;5016670;28;20553;-92
2021/06/25 08:35:47;;;;;;;3.47;3.27;;;25.60;67.10;;;;;;5015983;28;20456;-93
2021/06/25 08:38:17;;;;;;;4.40;2.70;;;25.60;67.40;;;;;;5015758;28;20475;-92
2021/06/25 08:43:14;;;;;;;4.13;3.20;;;25.60;67.60;;;;;;5368875;23;20493;-94
2021/06/25 08:55:29;;;;;;;3.03;2.80;;;25.60;68.30;;;;;;5724037;23;20461;-96
2021/06/25 09:25:56;;;;;;;5.63;3.60;;;25.70;69.30;;;;;;5395710;23;20501;-96
2021/06/25 09:28:27;;;;;;;4.43;3.20;;;25.70;69.40;;;;;;5038268;28;20435;-94
2021/06/25 09:31:16;;;;;;;4.00;3.70;;;25.70;69.50;;;;;;5038570;28;20506;-94
2021/06/25 11:22:52;;;;;;;4.40;4.10;;;25.80;71.50;;;;;;5446165;23;20503;-96
2021/06/25 11:46:15;;;;;;;5.10;4.70;;;25.70;71.90;;;;;;5141399;23;20979;-96
2021/06/25 11:48:44;;;;;;;5.20;4.80;;;25.80;71.90;;;;;;5028453;23;20501;-94
2021/06/25 11:51:12;;;;;;;4.50;4.20;;;25.70;71.90;;;;;;4996815;28;20495;-94
2021/06/25 12:00:29;;;;;;;4.43;4.07;;;25.80;72.00;;;;;;5003905;28;20776;-96
2021/06/25 12:03:28;;;;;;;5.00;4.70;;;25.70;72.10;;;;;;4999724;28;20933;-96
2021/06/25 12:06:06;;;;;;;5.27;4.80;;;25.80;72.20;;;;;;5225998;23;20443;-90
2021/06/25 12:08:51;;;;;;;4.43;4.13;;;25.70;72.10;;;;;;4975327;28;20464;-90
2021/06/25 12:11:18;;;;;;;4.90;4.50;;;25.90;72.20;;;;;;4976312;28;20480;-91
2021/06/25 12:13:45;;;;;;;4.93;4.53;;;25.80;72.20;;;;;;4976927;28;20470;-94
2021/06/25 12:16:12;;;;;;;4.63;4.33;;;25.80;72.20;;;;;;4976153;28;20455;-94
2021/06/25 12:18:44;;;;;;;4.90;4.50;;;25.80;72.20;;;;;;4975409;28;20460;-93
2021/06/25 12:21:13;;;;;;;5.43;4.97;;;25.80;72.20;;;;;;4978504;28;20452;-92
2021/06/25 12:23:40;;;;;;;4.63;4.40;;;25.80;72.20;;;;;;4975601;28;20456;-92
2021/06/25 12:26:14;;;;;;;4.30;4.00;;;25.80;72.20;;;;;;4975531;28;20516;-92
2021/06/25 12:28:42;;;;;;;5.60;5.10;;;25.80;72.20;;;;;;4975964;28;20455;-93
2021/06/25 12:31:15;;;;;;;4.93;4.53;;;25.80;72.20;;;;;;4975166;28;20495;-93
2021/06/25 12:33:44;;;;;;;5.23;4.83;;;25.80;72.20;;;;;;4977341;28;20496;-94
2021/06/25 12:36:13;;;;;;;5.63;5.20;;;25.80;72.40;;;;;;4976032;28;20782;-94
2021/06/25 12:38:40;;;;;;;5.00;4.63;;;25.80;73.20;;;;;;4975624;28;20452;-94
2021/06/25 12:41:10;;;;;;;5.70;5.30;;;25.80;72.30;;;;;;4977249;28;20475;-94
2021/06/25 12:43:39;;;;;;;5.53;5.13;;;25.80;72.20;;;;;;4991187;23;20488;-96
2021/06/25 12:46:10;;;;;;;8.20;6.43;;;25.80;72.10;;;;;;4998822;28;20454;-96
2021/06/25 12:48:45;;;;;;;7.57;5.97;;;25.80;71.90;;;;;;4999766;28;20899;-96
2021/06/25 12:51:16;;;;;;;6.23;5.83;;;25.80;71.90;;;;;;4995139;28;20475;-94
2021/06/25 12:54:14;;;;;;;5.70;5.30;;;25.90;72.00;;;;;;5091858;23;21049;-93
2021/06/25 12:56:43;;;;;;;6.50;5.90;;;25.80;71.90;;;;;;4994525;28;20431;-91
2021/06/25 13:00:05;;;;;;;5.70;5.20;;;25.80;72.00;;;;;;4995134;28;20442;-95
2021/06/25 13:02:35;;;;;;;5.70;5.30;;;25.80;72.00;;;;;;4917336;29;20486;-94
2021/06/25 13:05:03;;;;;;;6.77;5.87;;;25.80;72.10;;;;;;4991904;28;20558;-94
2021/06/25 13:14:01;;;;;;;5.20;4.80;;;25.80;72.10;;;;;;4949656;29;20443;-96
2021/06/25 13:16:28;;;;;;;6.60;6.10;;;25.80;72.20;;;;;;4996295;23;20514;-95
2021/06/25 13:25:44;;;;;;;5.57;5.17;;;25.90;72.40;;;;;;5181896;23;20476;-93
2021/06/25 13:28:11;;;;;;;6.50;5.80;;;25.80;72.40;;;;;;4995781;28;20912;-96
2021/06/25 13:30:40;;;;;;;5.47;4.97;;;25.80;72.40;;;;;;4994394;28;20967;-91
2021/06/25 13:33:11;;;;;;;6.60;5.70;;;25.80;72.30;;;;;;4994811;28;20472;-93
2021/06/25 13:35:39;;;;;;;6.40;5.80;;;25.80;72.30;;;;;;4995148;28;20942;-91
2021/06/25 13:44:03;;;;;;;6.27;5.67;;;25.80;72.50;;;;;;4974185;28;20479;-94
2021/06/25 13:56:58;;;;;;;5.60;5.20;;;25.80;72.60;;;;;;5260030;23;20682;-94
2021/06/25 13:59:42;;;;;;;5.40;5.03;;;25.80;72.50;;;;;;4997952;28;20440;-93
2021/06/25 14:05:11;;;;;;;6.17;5.60;;;25.70;72.50;;;;;;5003055;28;20490;-95
2021/06/25 14:07:38;;;;;;;6.23;5.20;;;25.80;72.60;;;;;;5000431;28;20465;-96
2021/06/25 14:10:09;;;;;;;7.93;5.30;;;25.80;72.60;;;;;;5001379;28;20452;-93
2021/06/25 14:12:42;;;;;;;5.17;4.80;;;25.90;72.70;;;;;;5000186;28;20498;-93
2021/06/25 14:15:10;;;;;;;5.30;4.90;;;25.90;72.70;;;;;;4998050;28;20439;-94
2021/06/25 14:20:40;;;;;;;4.50;4.10;;;25.90;72.70;;;;;;4962902;29;20521;-95
2021/06/25 14:23:07;;;;;;;5.27;4.77;;;25.80;72.70;;;;;;4994817;28;20486;-96
2021/06/25 14:25:34;;;;;;;7.17;6.47;;;25.80;72.70;;;;;;5005543;28;20505;-95
2021/06/25 14:28:02;;;;;;;5.90;5.40;;;25.90;72.90;;;;;;4998080;28;20794;-90
2021/06/25 14:30:29;;;;;;;5.97;5.57;;;25.80;72.80;;;;;;4997146;28;20451;-91
2021/06/25 14:32:57;;;;;;;6.17;5.67;;;25.90;72.80;;;;;;4996953;28;20491;-91
2021/06/25 14:35:25;;;;;;;7.00;5.53;;;25.90;72.60;;;;;;4997493;28;20502;-90
2021/06/25 14:37:52;;;;;;;7.27;6.67;;;25.90;72.50;;;;;;4997203;28;20478;-90
2021/06/25 14:40:19;;;;;;;6.10;5.63;;;25.90;72.30;;;;;;5006172;28;20511;-95
2021/06/25 14:42:46;;;;;;;9.23;6.77;;;25.90;72.10;;;;;;4999414;28;20882;-92
2021/06/25 14:45:23;;;;;;;7.57;6.77;;;25.90;71.90;;;;;;5004241;28;20482;-96
2021/06/25 14:51:21;;;;;;;9.73;7.30;;;25.90;71.50;;;;;;5017251;28;20454;-96
2021/06/25 14:53:48;;;;;;;7.30;6.70;;;25.90;71.20;;;;;;5009664;28;20491;-92
2021/06/25 14:56:15;;;;;;;7.97;7.17;;;25.90;71.20;;;;;;4997058;28;21013;-89
2021/06/25 15:04:45;;;;;;;7.23;6.63;;;25.90;71.10;;;;;;4987270;28;20994;-95
2021/06/25 15:07:31;;;;;;;6.80;6.30;;;25.90;71.10;;;;;;4962637;28;20577;-94
2021/06/25 15:09:59;;;;;;;7.60;6.90;;;25.90;71.20;;;;;;4958480;28;20441;-95
2021/06/25 15:39:33;;;;;;;6.77;6.27;;;25.90;70.90;;;;;;3014106;23;20494;-92
2021/06/25 16:45:55;;;;;;;6.60;6.10;;;25.90;70.70;;;;;;4167888;23;20487;-96
2021/06/25 16:48:24;;;;;;;8.30;7.30;;;25.90;70.60;;;;;;5006825;28;20528;-89
2021/06/25 16:50:51;;;;;;;8.47;6.80;;;25.90;70.50;;;;;;4994358;28;20550;-89
2021/06/25 16:53:17;;;;;;;7.20;6.60;;;25.90;70.60;;;;;;4994419;28;20496;-89
2021/06/25 16:55:48;;;;;;;7.20;6.50;;;25.90;70.60;;;;;;4994380;28;20476;-89
2021/06/25 16:58:15;;;;;;;7.70;7.03;;;26.00;70.70;;;;;;4994508;28;20453;-89
2021/06/25 17:00:42;;;;;;;7.27;6.67;;;25.90;70.80;;;;;;4994068;28;20865;-88
2021/06/25 17:03:09;;;;;;;7.87;7.27;;;25.90;70.80;;;;;;4994289;28;20444;-88
2021/06/25 17:05:37;;;;;;;6.77;6.20;;;25.90;70.90;;;;;;4994278;28;20454;-88
2021/06/25 17:08:04;;;;;;;6.47;6.00;;;26.00;71.00;;;;;;4994057;28;20451;-89
2021/06/25 17:10:31;;;;;;;7.30;6.80;;;26.00;71.10;;;;;;4993792;28;20448;-88
2021/06/25 17:12:58;;;;;;;8.63;7.83;;;25.90;71.00;;;;;;4994018;28;20854;-88
2021/06/25 17:15:25;;;;;;;6.23;5.77;;;25.90;71.00;;;;;;4994171;28;20539;-88
2021/06/25 17:17:52;;;;;;;7.87;7.27;;;26.00;71.10;;;;;;4994834;28;20856;-88
2021/06/25 17:20:21;;;;;;;7.33;6.73;;;25.90;71.00;;;;;;4994802;28;20935;-87
2021/06/25 17:22:49;;;;;;;6.83;6.23;;;26.00;71.10;;;;;;4994302;28;20443;-88
2021/06/25 17:25:16;;;;;;;9.90;7.03;;;25.80;71.00;;;;;;4993987;28;20471;-88
2021/06/25 17:27:43;;;;;;;6.70;6.17;;;25.90;71.20;;;;;;4993718;28;20452;-88
2021/06/25 17:30:10;;;;;;;6.60;6.17;;;25.90;71.20;;;;;;4993300;28;20512;-88
2021/06/25 17:32:39;;;;;;;7.23;6.37;;;25.90;71.20;;;;;;4992968;28;20516;-88
2021/06/25 17:35:06;;;;;;;6.03;5.63;;;25.90;71.20;;;;;;4996754;28;20456;-88
2021/06/25 17:37:33;;;;;;;6.90;6.30;;;25.90;71.20;;;;;;4997243;28;20460;-88
2021/06/25 17:40:03;;;;;;;7.30;6.70;;;25.90;71.20;;;;;;4980350;28;20444;-88
2021/06/25 17:42:29;;;;;;;6.57;6.07;;;25.90;71.20;;;;;;4979906;28;20454;-88
2021/06/25 17:44:56;;;;;;;6.90;6.50;;;25.90;71.20;;;;;;4997070;28;20447;-88
2021/06/25 17:47:23;;;;;;;5.80;5.40;;;25.90;71.20;;;;;;4998630;28;20491;-88
2021/06/25 17:49:50;;;;;;;6.63;6.13;;;25.90;71.30;;;;;;4996746;28;20508;-88
2021/06/25 17:52:17;;;;;;;6.37;5.87;;;25.90;71.40;;;;;;4995935;28;20491;-88
2021/06/25 17:54:44;;;;;;;6.80;6.10;;;25.90;71.40;;;;;;4996894;28;20456;-88
2021/06/25 17:57:12;;;;;;;5.17;4.87;;;25.90;71.50;;;;;;4979189;28;20474;-88
2021/06/25 17:59:39;;;;;;;6.70;6.20;;;25.90;72.40;;;;;;4996423;28;20452;-88
2021/06/25 18:02:06;;;;;;;6.47;6.00;;;25.90;71.50;;;;;;4979760;28;20451;-88
2021/06/25 18:04:33;;;;;;;7.00;6.33;;;25.90;71.50;;;;;;5001461;28;20464;-88
2021/06/25 18:06:59;;;;;;;7.20;6.70;;;25.90;71.50;;;;;;4996464;28;20444;-88
2021/06/25 18:09:27;;;;;;;6.97;6.27;;;25.90;71.30;;;;;;4996206;28;20581;-89
2021/06/25 18:11:54;;;;;;;6.40;5.90;;;25.90;71.40;;;;;;4996050;28;20518;-88
2021/06/25 18:14:26;;;;;;;7.50;6.90;;;25.90;71.40;;;;;;4996312;28;20550;-88
2021/06/25 18:16:53;;;;;;;7.73;7.17;;;25.90;71.50;;;;;;4978886;28;20538;-88
2021/06/25 18:19:20;;;;;;;7.47;6.60;;;25.90;71.70;;;;;;4996259;28;20448;-88
2021/06/25 18:21:47;;;;;;;6.17;5.70;;;25.90;71.80;;;;;;4978828;28;20455;-88
2021/06/25 18:24:14;;;;;;;5.83;5.43;;;25.90;71.80;;;;;;4978954;28;20457;-88
2021/06/25 18:26:41;;;;;;;6.57;5.93;;;25.90;71.70;;;;;;4995818;28;20477;-89
2021/06/25 18:29:08;;;;;;;7.13;6.53;;;25.90;71.70;;;;;;4978686;28;20544;-86
2021/06/25 18:31:36;;;;;;;7.43;6.83;;;25.90;71.70;;;;;;4995866;28;20447;-91
2021/06/25 18:34:03;;;;;;;6.90;6.40;;;25.90;71.70;;;;;;4996257;28;20477;-89
2021/06/25 18:36:30;;;;;;;6.63;6.20;;;25.90;71.70;;;;;;4995920;28;20450;-89
2021/06/25 18:38:56;;;;;;;7.60;6.93;;;25.90;71.60;;;;;;4995852;28;20451;-89
2021/06/25 18:41:23;;;;;;;6.90;6.30;;;25.90;71.60;;;;;;4995870;28;20456;-88
2021/06/25 18:43:50;;;;;;;7.90;6.83;;;25.90;71.50;;;;;;4995627;28;20534;-88
2021/06/25 18:46:18;;;;;;;6.67;5.57;;;25.90;71.60;;;;;;4995450;28;20486;-88
2021/06/25 18:48:47;;;;;;;7.23;6.73;;;25.90;71.60;;;;;;4995798;28;20450;-89
2021/06/25 18:51:14;;;;;;;6.80;6.30;;;25.90;71.50;;;;;;4995681;28;20458;-89
2021/06/25 18:53:41;;;;;;;5.57;5.17;;;25.90;71.60;;;;;;4995478;28;20979;-90
2021/06/25 18:56:08;;;;;;;6.10;5.50;;;25.90;71.70;;;;;;4995420;28;20559;-90
2021/06/25 18:58:35;;;;;;;7.33;6.83;;;25.90;71.70;;;;;;4995509;28;20436;-90
2021/06/25 19:01:06;;;;;;;7.00;6.50;;;25.90;71.80;;;;;;4996866;28;20461;-89
2021/06/25 19:03:33;;;;;;;7.53;6.87;;;25.90;71.80;;;;;;4996358;28;20445;-89
2021/06/25 19:06:01;;;;;;;6.17;5.73;;;25.90;71.80;;;;;;4996184;28;20829;-89
2021/06/25 19:08:28;;;;;;;7.10;6.50;;;25.90;71.80;;;;;;4996141;28;20440;-89
2021/06/25 19:10:55;;;;;;;6.67;6.07;;;25.90;71.80;;;;;;4996006;28;20470;-89
2021/06/25 19:13:22;;;;;;;6.63;6.13;;;25.90;71.90;;;;;;4995722;28;20499;-89
2021/06/25 19:15:49;;;;;;;8.10;7.40;;;25.90;71.90;;;;;;4995858;28;20446;-89
2021/06/25 19:18:15;;;;;;;7.13;6.57;;;25.90;71.90;;;;;;4995692;28;20521;-88
2021/06/25 19:20:42;;;;;;;7.97;7.30;;;25.90;71.90;;;;;;4995815;28;20826;-89
2021/06/25 19:23:11;;;;;;;7.50;6.80;;;25.90;71.90;;;;;;4995534;28;20452;-89
2021/06/25 19:25:39;;;;;;;7.30;6.63;;;25.90;71.80;;;;;;4995995;28;21005;-91
2021/06/25 19:28:07;;;;;;;6.43;6.03;;;25.90;71.90;;;;;;4980083;28;20451;-90
2021/06/25 19:30:41;;;;;;;6.90;6.30;;;25.80;71.90;;;;;;4995766;28;20818;-88
2021/06/25 19:33:08;;;;;;;6.67;6.17;;;26.00;72.10;;;;;;4980544;28;20516;-88
2021/06/25 19:35:35;;;;;;;7.63;6.93;;;25.90;72.00;;;;;;4986224;28;20942;-89
2021/06/25 19:38:02;;;;;;;6.63;6.23;;;25.80;71.90;;;;;;4991728;28;20534;-88
2021/06/25 19:40:31;;;;;;;7.03;6.33;;;25.80;71.90;;;;;;4975804;28;20490;-89
2021/06/25 19:42:58;;;;;;;7.33;6.73;;;25.80;72.00;;;;;;4975702;28;20463;-88
2021/06/25 19:45:25;;;;;;;6.23;5.67;;;25.80;72.00;;;;;;4989906;28;20474;-88
2021/06/25 19:47:51;;;;;;;7.10;6.50;;;25.80;72.10;;;;;;4995635;28;20515;-93
2021/06/25 19:50:18;;;;;;;7.30;6.60;;;25.80;72.20;;;;;;4995245;28;20955;-90
2021/06/25 19:52:45;;;;;;;7.67;6.00;;;25.80;72.40;;;;;;4995377;28;20495;-90
2021/06/25 19:55:14;;;;;;;6.20;5.70;;;25.80;72.50;;;;;;4994812;28;20557;-89
2021/06/25 19:57:43;;;;;;;6.37;5.83;;;25.80;72.50;;;;;;4994896;28;20440;-90
2021/06/25 20:00:13;;;;;;;6.53;6.00;;;25.90;72.60;;;;;;4994994;28;20455;-89
2021/06/25 20:02:41;;;;;;;6.77;5.83;;;25.90;72.70;;;;;;4994903;28;20990;-89
2021/06/25 20:05:10;;;;;;;6.03;5.53;;;25.90;72.70;;;;;;4994991;28;20962;-89
2021/06/25 20:07:36;;;;;;;6.40;5.80;;;25.90;72.60;;;;;;4995283;28;20446;-91
2021/06/25 20:10:04;;;;;;;6.77;6.17;;;25.90;72.60;;;;;;4994823;28;20523;-91
2021/06/25 20:12:32;;;;;;;6.40;5.23;;;25.90;72.60;;;;;;4995164;28;20486;-90
2021/06/25 20:15:00;;;;;;;6.33;5.83;;;25.90;72.60;;;;;;4995056;28;21131;-90
2021/06/25 20:17:27;;;;;;;7.17;5.97;;;25.90;72.70;;;;;;4995047;28;20804;-89
2021/06/25 20:19:54;;;;;;;5.80;5.30;;;26.00;72.70;;;;;;4994615;28;20539;-89
2021/06/25 20:22:21;;;;;;;6.63;6.13;;;26.00;72.70;;;;;;4995014;28;20454;-92
2021/06/25 20:24:48;;;;;;;5.10;4.73;;;26.00;72.70;;;;;;4994355;28;20542;-89
2021/06/25 20:27:15;;;;;;;6.43;5.93;;;26.00;72.60;;;;;;4994600;28;20444;-90
2021/06/25 20:29:41;;;;;;;6.20;5.70;;;26.00;72.60;;;;;;4994467;28;20539;-90
2021/06/25 20:32:10;;;;;;;6.13;5.73;;;26.00;72.50;;;;;;4994874;28;20440;-89
2021/06/25 20:34:37;;;;;;;5.40;4.90;;;26.00;72.50;;;;;;4994564;28;20998;-91
2021/06/25 20:37:04;;;;;;;5.80;5.40;;;26.00;72.50;;;;;;4994569;28;20446;-89
2021/06/25 20:39:32;;;;;;;6.40;6.00;;;26.00;72.70;;;;;;4994469;28;20542;-89
2021/06/25 20:42:01;;;;;;;5.70;5.30;;;26.00;72.50;;;;;;4994488;28;20459;-89
2021/06/25 20:44:28;;;;;;;5.27;4.83;;;26.10;72.50;;;;;;4994351;28;20942;-89
2021/06/25 20:46:55;;;;;;;6.20;5.70;;;26.00;72.50;;;;;;4994121;28;20541;-91
2021/06/25 20:49:23;;;;;;;5.77;5.30;;;26.10;72.60;;;;;;4997023;28;20459;-91
2021/06/25 20:51:50;;;;;;;6.43;5.93;;;26.10;72.50;;;;;;4994189;28;20880;-88
2021/06/25 20:54:17;;;;;;;5.03;4.53;;;26.10;72.50;;;;;;4994369;28;20506;-93
2021/06/25 20:56:43;;;;;;;6.53;6.00;;;26.10;72.40;;;;;;4994430;28;20475;-89
2021/06/25 20:59:10;;;;;;;5.40;5.00;;;26.10;72.50;;;;;;4994220;28;20451;-91
2021/06/25 21:01:37;;;;;;;4.63;4.30;;;26.10;72.50;;;;;;4994354;28;20442;-90
2021/06/25 21:04:04;;;;;;;5.33;4.93;;;26.10;72.50;;;;;;4993973;28;20441;-90
2021/06/25 21:06:33;;;;;;;8.00;5.77;;;26.10;72.60;;;;;;4994031;28;20460;-91
2021/06/25 21:08:59;;;;;;;5.37;4.97;;;26.10;72.60;;;;;;4992252;28;20451;-89
2021/06/25 21:11:26;;;;;;;5.80;5.30;;;26.10;72.70;;;;;;4993285;28;20811;-90
2021/06/25 21:13:53;;;;;;;5.50;5.00;;;26.10;72.70;;;;;;4993877;28;20873;-89
2021/06/25 21:16:20;;;;;;;5.80;5.30;;;26.10;72.80;;;;;;4993769;28;20448;-89
2021/06/25 21:18:47;;;;;;;5.60;5.10;;;26.10;72.80;;;;;;4993797;28;20450;-89
2021/06/25 21:21:14;;;;;;;5.40;5.00;;;26.10;72.80;;;;;;4994170;28;20451;-90
2021/06/25 21:23:43;;;;;;;6.73;5.93;;;26.10;72.70;;;;;;4993848;28;20938;-90
2021/06/25 21:26:10;;;;;;;5.67;5.17;;;26.20;72.90;;;;;;4993665;28;20554;-89
2021/06/25 21:28:36;;;;;;;5.33;4.90;;;26.20;72.90;;;;;;4993877;28;20775;-89
2021/06/25 21:31:03;;;;;;;5.30;4.90;;;26.20;72.80;;;;;;4994196;28;20820;-89
2021/06/25 21:33:31;;;;;;;5.27;4.77;;;26.20;72.80;;;;;;4993764;28;20484;-89
2021/06/25 21:35:58;;;;;;;5.30;4.90;;;26.10;72.80;;;;;;4993983;28;20944;-89
2021/06/25 21:38:25;;;;;;;5.63;5.23;;;26.10;72.80;;;;;;4993777;28;20445;-89
2021/06/25 21:40:54;;;;;;;5.23;4.80;;;26.10;72.90;;;;;;4993785;28;20443;-89
2021/06/25 21:43:21;;;;;;;5.93;5.33;;;26.20;73.10;;;;;;4993536;28;20454;-89
2021/06/25 21:45:48;;;;;;;5.60;5.10;;;26.10;73.00;;;;;;4993376;28;20479;-90
2021/06/25 21:48:16;;;;;;;5.80;5.23;;;26.10;73.00;;;;;;4993447;28;20466;-90
2021/06/25 21:50:43;;;;;;;5.20;4.70;;;26.10;73.20;;;;;;4993834;28;20448;-89
2021/06/25 21:53:10;;;;;;;6.10;5.67;;;26.20;73.20;;;;;;4993554;28;20498;-90
2021/06/25 21:55:36;;;;;;;5.70;5.30;;;26.10;73.20;;;;;;4993555;28;20797;-89
2021/06/25 21:58:05;;;;;;;5.93;5.43;;;26.10;73.20;;;;;;4993818;28;20448;-89
2021/06/25 22:00:32;;;;;;;5.43;4.93;;;26.10;73.20;;;;;;4993792;28;20473;-90
2021/06/25 22:02:59;;;;;;;5.43;5.03;;;26.10;73.20;;;;;;4993668;28;20539;-90
2021/06/25 22:05:26;;;;;;;6.37;4.80;;;26.10;73.20;;;;;;4993636;28;20943;-89
2021/06/25 22:07:53;;;;;;;5.20;4.70;;;26.10;73.30;;;;;;4993300;28;20502;-89
2021/06/25 22:10:20;;;;;;;5.83;5.40;;;26.00;73.20;;;;;;4993704;28;20807;-89
2021/06/25 22:12:47;;;;;;;6.33;5.83;;;26.00;73.30;;;;;;4993698;28;20451;-89
2021/06/25 22:15:15;;;;;;;5.10;4.70;;;26.00;74.10;;;;;;4993429;28;21006;-88
2021/06/25 22:17:42;;;;;;;5.17;4.70;;;26.00;73.30;;;;;;4993616;28;20451;-90
2021/06/25 22:20:10;;;;;;;5.20;4.80;;;26.20;73.60;;;;;;4995541;28;20470;-90
2021/06/25 22:22:37;;;;;;;5.67;5.20;;;26.00;73.30;;;;;;4996880;28;20444;-90
2021/06/25 22:25:07;;;;;;;5.60;5.20;;;26.00;73.40;;;;;;4996763;28;20481;-89
2021/06/25 22:27:34;;;;;;;5.10;4.80;;;26.00;73.40;;;;;;4996745;28;20452;-89
2021/06/25 22:30:01;;;;;;;4.97;4.67;;;26.00;73.50;;;;;;4997159;28;20473;-89
2021/06/25 22:32:29;;;;;;;5.27;4.77;;;26.00;73.60;;;;;;4997062;28;20454;-89
2021/06/25 22:34:55;;;;;;;5.63;4.40;;;26.00;73.60;;;;;;4996698;28;21012;-89
2021/06/25 22:37:22;;;;;;;4.87;4.47;;;26.00;73.70;;;;;;4996601;28;20961;-89
2021/06/25 22:39:49;;;;;;;4.30;4.00;;;26.00;73.70;;;;;;4996653;28;20474;-90
2021/06/25 22:42:16;;;;;;;5.20;4.90;;;26.00;73.80;;;;;;4996640;28;20440;-89
2021/06/25 22:44:43;;;;;;;5.00;4.63;;;26.00;73.90;;;;;;4996881;28;20440;-90
2021/06/25 22:47:10;;;;;;;6.37;4.70;;;26.00;73.90;;;;;;4996265;28;20551;-89
2021/06/25 22:49:38;;;;;;;5.00;4.60;;;26.00;74.00;;;;;;4996578;28;20454;-89
2021/06/25 22:52:05;;;;;;;7.23;4.93;;;26.00;74.00;;;;;;4996579;28;20455;-89
2021/06/25 22:54:32;;;;;;;4.73;4.43;;;26.00;74.00;;;;;;4996501;28;20549;-90
2021/06/25 22:56:59;;;;;;;4.67;4.33;;;26.00;74.00;;;;;;4996238;28;20469;-89
2021/06/25 22:59:26;;;;;;;5.20;4.83;;;26.00;74.10;;;;;;4996275;28;20948;-89
2021/06/25 23:01:54;;;;;;;5.20;4.70;;;26.00;74.10;;;;;;4996172;28;20855;-89
2021/06/25 23:04:20;;;;;;;5.17;4.77;;;26.00;74.20;;;;;;4995893;28;20452;-90
2021/06/25 23:06:49;;;;;;;5.20;4.80;;;26.00;74.20;;;;;;4996000;28;20556;-89
2021/06/25 23:09:15;;;;;;;6.00;5.60;;;26.00;74.20;;;;;;4995984;28;20453;-90
2021/06/25 23:11:43;;;;;;;4.93;4.63;;;26.00;74.20;;;;;;4995977;28;20448;-90
2021/06/25 23:14:09;;;;;;;5.20;4.83;;;25.90;74.20;;;;;;4996129;28;20494;-89
2021/06/25 23:16:37;;;;;;;4.90;4.60;;;25.90;74.20;;;;;;4996170;28;20467;-88
2021/06/25 23:19:04;;;;;;;4.80;4.50;;;25.90;74.20;;;;;;4995957;28;20926;-90
2021/06/25 23:21:31;;;;;;;5.43;5.03;;;25.90;74.20;;;;;;4996114;28;20458;-90
2021/06/25 23:23:59;;;;;;;4.83;4.53;;;25.90;74.20;;;;;;4996177;28;20542;-90
2021/06/25 23:26:26;;;;;;;5.20;4.90;;;26.00;74.30;;;;;;4995969;28;20989;-90
2021/06/25 23:28:53;;;;;;;4.50;4.20;;;25.90;74.30;;;;;;4995653;28;20550;-90
2021/06/25 23:31:19;;;;;;;5.80;5.40;;;25.90;75.10;;;;;;4995177;28;20550;-90
2021/06/25 23:33:46;;;;;;;4.53;4.20;;;25.90;74.30;;;;;;4995524;28;20975;-89
2021/06/25 23:36:13;;;;;;;5.10;4.80;;;25.90;74.30;;;;;;4995685;28;20440;-90
2021/06/25 23:38:40;;;;;;;5.47;4.97;;;25.90;74.30;;;;;;4995406;28;20965;-89
2021/06/25 23:41:08;;;;;;;5.17;4.77;;;25.90;74.30;;;;;;4995738;28;20440;-89
2021/06/25 23:43:35;;;;;;;5.30;4.67;;;25.90;74.40;;;;;;4995654;28;20900;-89
2021/06/25 23:46:02;;;;;;;5.57;5.07;;;25.90;74.40;;;;;;4995240;28;20479;-89
2021/06/25 23:48:29;;;;;;;5.10;4.70;;;25.90;74.40;;;;;;4995604;28;20532;-90
2021/06/25 23:50:56;;;;;;;4.60;4.30;;;25.90;74.40;;;;;;4995283;28;20451;-89
2021/06/25 23:53:22;;;;;;;4.93;4.60;;;25.90;74.50;;;;;;4995211;28;20452;-89
2021/06/25 23:55:55;;;;;;;5.57;5.10;;;25.90;74.50;;;;;;4995150;28;20475;-90
2021/06/25 23:58:25;;;;;;;5.13;4.73;;;25.90;74.50;;;;;;4995143;28;20939;-89
